createdAt,value
2018-06-05T00:02:33.304Z,17.66
2018-06-05T00:08:39.351Z,17.94
2018-06-05T00:14:45.044Z,17.78
2018-06-05T00:20:51.018Z,17.72
2018-06-05T00:26:56.873Z,17.93
2018-06-05T00:33:02.463Z,17.80
2018-06-05T00:39:08.898Z,17.79
2018-06-05T00:45:14.528Z,17.96
2018-06-05T00:51:37.085Z,18.15
2018-06-05T00:57:42.823Z,17.96
2018-06-05T01:03:48.847Z,18.05
2018-06-05T01:09:56.232Z,18.12
2018-06-05T01:16:01.869Z,17.88
2018-06-05T01:22:07.547Z,17.82
2018-06-05T01:28:13.292Z,17.91
2018-06-05T01:34:19.068Z,17.74
2018-06-05T01:40:26.035Z,17.80
2018-06-05T01:46:31.753Z,17.75
2018-06-05T01:52:37.441Z,17.88
2018-06-05T01:58:43.075Z,17.89
2018-06-05T02:04:48.698Z,17.60
2018-06-05T02:10:55.456Z,17.65
2018-06-05T02:17:01.230Z,17.61
2018-06-05T02:23:06.892Z,17.82
2018-06-05T02:29:12.656Z,17.67
2018-06-05T02:35:18.431Z,17.44
2018-06-05T02:41:24.544Z,17.60
2018-06-05T02:47:30.611Z,17.57
2018-06-05T02:53:36.330Z,17.49
2018-06-05T02:59:42.212Z,17.35
2018-06-05T03:05:47.892Z,17.05
2018-06-05T03:11:55.450Z,17.08
2018-06-05T03:18:01.187Z,16.89
2018-06-05T03:24:07.322Z,17.04
2018-06-05T03:30:13.065Z,17.01
2018-06-05T03:36:18.991Z,16.82
2018-06-05T03:42:25.013Z,16.65
2018-06-05T03:48:30.684Z,16.63
2018-06-05T03:54:36.450Z,16.60
2018-06-05T04:00:41.845Z,16.60
2018-06-05T04:06:47.474Z,16.51
2018-06-05T04:12:55.212Z,16.48
2018-06-05T04:19:00.944Z,16.52
2018-06-05T04:25:06.598Z,16.59
2018-06-05T04:31:12.259Z,16.67
2018-06-05T04:37:17.999Z,16.57
2018-06-05T04:43:23.697Z,16.67
2018-06-05T04:49:29.227Z,16.68
2018-06-05T04:55:34.785Z,16.75
2018-06-05T05:01:40.496Z,16.80
2018-06-05T05:07:46.231Z,16.76
2018-06-05T05:13:53.875Z,16.98
2018-06-05T05:19:59.883Z,16.97
2018-06-05T05:26:05.708Z,16.83
2018-06-05T05:32:11.611Z,16.88
2018-06-05T05:38:17.345Z,16.78
2018-06-05T05:44:23.044Z,16.81
2018-06-05T05:50:28.969Z,17.00
2018-06-05T05:56:34.510Z,16.97
2018-06-05T06:02:40.156Z,17.12
2018-06-05T06:08:45.806Z,17.08
2018-06-05T06:14:52.526Z,17.14
2018-06-05T06:20:58.217Z,17.02
2018-06-05T06:27:04.258Z,17.01
2018-06-05T06:33:09.789Z,17.12
2018-06-05T06:39:15.606Z,17.25
2018-06-05T06:45:21.777Z,17.27
2018-06-05T06:51:27.446Z,17.36
2018-06-05T06:57:33.124Z,17.24
2018-06-05T07:03:38.889Z,17.27
2018-06-05T07:09:44.812Z,17.50
2018-06-05T07:15:51.463Z,17.47
2018-06-05T07:21:57.241Z,17.66
2018-06-05T07:28:02.889Z,17.72
2018-06-05T07:34:08.500Z,17.74
2018-06-05T07:40:14.167Z,17.75
2018-06-05T07:46:20.080Z,17.80
2018-06-05T07:52:26.729Z,18.05
2018-06-05T07:58:32.437Z,18.11
2018-06-05T08:04:38.014Z,18.29
2018-06-05T08:10:44.412Z,18.11
2018-06-05T08:16:50.552Z,18.12
2018-06-05T08:22:57.011Z,18.02
2018-06-05T08:29:02.709Z,18.38
2018-06-05T08:35:08.349Z,18.74
2018-06-05T08:41:14.048Z,18.88
2018-06-05T08:47:20.326Z,18.87
2018-06-05T08:53:26.920Z,18.98
2018-06-05T08:59:32.565Z,18.86
2018-06-05T09:05:38.222Z,18.72
2018-06-05T09:11:43.889Z,18.94
2018-06-05T09:17:49.921Z,19.18
2018-06-05T09:23:55.881Z,19.41
2018-06-05T09:30:01.640Z,19.19
2018-06-05T09:36:07.292Z,19.16
2018-06-05T09:42:13.224Z,19.68
2018-06-05T09:48:18.885Z,19.35
2018-06-05T09:54:24.852Z,19.49
2018-06-05T10:00:35.679Z,19.27
2018-06-05T10:06:41.368Z,19.78
2018-06-05T10:12:47.045Z,19.85
2018-06-05T10:18:52.887Z,20.35
2018-06-05T10:24:58.721Z,20.24
2018-06-05T10:31:04.557Z,21.12
2018-06-05T10:37:09.999Z,21.71
2018-06-05T10:43:15.557Z,22.61
2018-06-05T10:49:21.617Z,22.74
2018-06-05T10:55:27.287Z,23.21
2018-06-05T11:01:32.893Z,24.04
2018-06-05T11:07:38.752Z,24.00
2018-06-05T11:13:44.405Z,24.18
2018-06-05T11:19:51.080Z,24.17
2018-06-05T11:25:56.919Z,23.92
2018-06-05T11:32:02.688Z,25.25
2018-06-05T11:38:08.634Z,24.59
2018-06-05T11:44:14.347Z,24.09
2018-06-05T11:50:20.040Z,24.10
2018-06-05T11:56:26.209Z,24.60
2018-06-05T12:02:31.843Z,25.43
2018-06-05T12:08:37.715Z,26.88
2018-06-05T12:14:43.352Z,27.10
2018-06-05T12:20:49.124Z,27.29
2018-06-05T12:26:55.255Z,27.13
2018-06-05T12:33:00.929Z,27.28
2018-06-05T12:39:09.476Z,27.89
2018-06-05T12:45:15.148Z,29.12
2018-06-05T12:51:21.145Z,29.92
2018-06-05T12:57:27.279Z,28.99
2018-06-05T13:03:32.984Z,28.69
2018-06-05T13:09:39.093Z,28.12
2018-06-05T13:15:45.100Z,28.28
2018-06-05T13:21:51.121Z,29.50
2018-06-05T13:27:57.744Z,29.79
2018-06-05T13:34:03.453Z,29.00
2018-06-05T13:40:09.120Z,29.58
2018-06-05T13:46:14.869Z,30.70
2018-06-05T13:52:21.225Z,31.01
2018-06-05T13:58:27.466Z,30.76
2018-06-05T14:04:33.320Z,30.47
2018-06-05T14:10:38.947Z,30.09
2018-06-05T14:16:44.753Z,29.28
2018-06-05T14:22:51.709Z,29.80
2018-06-05T14:28:58.259Z,30.58
2018-06-05T14:35:03.840Z,30.95
2018-06-05T14:41:09.765Z,31.41
2018-06-05T14:47:15.599Z,31.06
2018-06-05T14:53:21.338Z,31.21
2018-06-05T14:59:27.402Z,31.08
2018-06-05T15:05:32.723Z,30.68
2018-06-05T15:11:38.260Z,30.11
2018-06-05T15:17:44.082Z,30.12
2018-06-05T15:23:50.572Z,30.15
2018-06-05T15:29:56.892Z,29.27
2018-06-05T15:36:02.652Z,29.60
2018-06-05T15:42:08.272Z,29.45
2018-06-05T15:48:14.059Z,29.43
2018-06-05T15:54:20.098Z,29.58
2018-06-05T16:00:26.107Z,29.70
2018-06-05T16:06:31.913Z,29.15
2018-06-05T16:12:37.699Z,28.80
2018-06-05T16:18:43.471Z,28.33
2018-06-05T16:24:49.681Z,28.90
2018-06-05T16:30:55.847Z,29.58
2018-06-05T16:37:01.565Z,31.31
2018-06-05T16:43:07.183Z,33.48
2018-06-05T16:49:12.903Z,34.52
2018-06-05T16:55:18.624Z,34.83
2018-06-05T17:01:24.560Z,35.52
2018-06-05T17:07:30.328Z,35.76
2018-06-05T17:13:36.079Z,36.70
2018-06-05T17:19:41.948Z,36.25
2018-06-05T17:25:47.768Z,35.96
2018-06-05T17:31:54.648Z,35.18
2018-06-05T17:38:00.411Z,34.73
2018-06-05T17:44:06.084Z,34.47
2018-06-05T17:50:11.823Z,35.20
2018-06-05T17:56:17.626Z,34.54
2018-06-05T18:02:24.236Z,34.14
2018-06-05T18:08:29.875Z,34.23
2018-06-05T18:14:35.633Z,33.35
2018-06-05T18:20:41.323Z,32.13
2018-06-05T18:26:47.177Z,32.37
2018-06-05T18:32:53.846Z,31.90
2018-06-05T18:38:59.500Z,31.48
2018-06-05T18:45:05.232Z,30.39
2018-06-05T18:51:10.934Z,28.07
2018-06-05T18:57:16.791Z,26.59
2018-06-05T19:03:23.047Z,25.52
2018-06-05T19:09:28.978Z,24.57
2018-06-05T19:15:35.168Z,23.74
2018-06-05T19:21:40.975Z,23.12
2018-06-05T19:27:46.694Z,22.83
2018-06-05T19:33:53.647Z,22.21
2018-06-05T19:39:59.290Z,21.78
2018-06-05T19:46:05.320Z,21.33
2018-06-05T19:52:11.160Z,21.03
2018-06-05T19:58:16.896Z,20.59
2018-06-05T20:04:22.961Z,20.25
2018-06-05T20:10:28.710Z,19.87
2018-06-05T20:16:34.714Z,19.57
2018-06-05T20:22:40.439Z,19.05
2018-06-05T20:28:46.201Z,18.82
2018-06-05T20:34:53.305Z,18.49
2018-06-05T20:40:59.136Z,18.45
2018-06-05T20:47:04.847Z,18.43
2018-06-05T20:53:10.602Z,18.28
2018-06-05T20:59:16.406Z,18.02
2018-06-05T21:05:23.759Z,17.71
2018-06-05T21:11:29.513Z,17.76
2018-06-05T21:17:35.194Z,17.55
2018-06-05T21:23:41.133Z,17.59
2018-06-05T21:29:46.761Z,17.51
2018-06-05T21:35:52.646Z,17.46
2018-06-05T21:41:58.418Z,17.20
2018-06-05T21:48:04.201Z,17.19
2018-06-05T21:54:09.815Z,17.01
2018-06-05T22:00:18.176Z,17.08
2018-06-05T22:06:24.649Z,17.00
2018-06-05T22:12:30.357Z,16.88
2018-06-05T22:18:35.652Z,16.82
2018-06-05T22:24:41.192Z,16.91
2018-06-05T22:30:46.905Z,16.54
2018-06-05T22:36:52.865Z,16.46
2018-06-05T22:42:58.684Z,16.59
2018-06-05T22:49:04.306Z,16.35
2018-06-05T22:55:10.260Z,16.24
2018-06-05T23:01:15.933Z,16.09
2018-06-05T23:07:23.524Z,15.96
2018-06-05T23:13:29.325Z,16.03
2018-06-05T23:19:35.703Z,15.88
2018-06-05T23:25:41.376Z,15.83
2018-06-05T23:31:46.984Z,15.84
2018-06-05T23:37:53.052Z,15.72
2018-06-05T23:43:58.967Z,15.66
2018-06-05T23:50:04.612Z,15.85
2018-06-05T23:56:10.269Z,15.55
